createdAt,value
2022-07-29T00:00:58.748Z,102044.06
2022-07-29T00:03:25.612Z,102046.84
2022-07-29T00:05:55.112Z,102049.53
2022-07-29T00:08:21.926Z,102050.44
2022-07-29T00:10:48.922Z,102052.25
2022-07-29T00:13:15.573Z,102049.72
2022-07-29T00:15:42.431Z,102050.59
2022-07-29T00:18:09.565Z,102046.88
2022-07-29T00:20:36.267Z,102047.25
2022-07-29T00:23:03.124Z,102049.03
2022-07-29T00:25:31.143Z,102051.50
2022-07-29T00:28:00.673Z,102054.78
2022-07-29T00:30:27.325Z,102049.41
2022-07-29T00:32:54.185Z,102048.47
2022-07-29T00:35:39.420Z,102054.84
2022-07-29T00:38:06.423Z,102049.56
2022-07-29T00:40:33.066Z,102054.06
2022-07-29T00:43:00.822Z,102051.72
2022-07-29T00:45:27.515Z,102044.91
2022-07-29T00:47:54.666Z,102045.03
2022-07-29T00:50:22.566Z,102042.47
2022-07-29T00:52:49.716Z,102051.22
2022-07-29T00:55:16.968Z,102050.25
2022-07-29T00:57:44.855Z,102052.28
2022-07-29T01:00:13.320Z,102050.31
2022-07-29T01:02:40.147Z,102048.50
2022-07-29T01:05:07.976Z,102051.78
2022-07-29T01:07:38.403Z,102057.41
2022-07-29T01:10:06.613Z,102052.13
2022-07-29T01:12:34.688Z,102056.16
2022-07-29T01:15:03.525Z,102056.13
2022-07-29T01:17:33.163Z,102054.25
2022-07-29T01:20:03.075Z,102061.25
2022-07-29T01:22:36.569Z,102055.84
2022-07-29T01:25:22.048Z,102061.94
2022-07-29T01:28:02.362Z,102055.44
2022-07-29T01:30:31.701Z,102057.16
2022-07-29T01:33:01.419Z,102062.47
2022-07-29T01:35:49.254Z,102056.72
2022-07-29T01:38:22.187Z,102051.69
2022-07-29T01:40:52.450Z,102054.41
2022-07-29T01:43:24.834Z,102063.81
2022-07-29T01:46:01.413Z,102060.75
2022-07-29T01:48:28.157Z,102056.72
2022-07-29T01:50:57.397Z,102052.31
2022-07-29T01:53:37.613Z,102053.28
2022-07-29T01:56:07.787Z,102057.59
2022-07-29T01:58:36.816Z,102055.59
2022-07-29T02:01:03.870Z,102053.06
2022-07-29T02:03:32.966Z,102048.78
2022-07-29T02:06:01.092Z,102055.81
2022-07-29T02:08:29.211Z,102058.44
2022-07-29T02:10:56.354Z,102054.94
2022-07-29T02:13:24.753Z,102055.94
2022-07-29T02:15:52.415Z,102057.50
2022-07-29T02:18:19.971Z,102050.28
2022-07-29T02:20:49.303Z,102052.75
2022-07-29T02:23:20.373Z,102050.88
2022-07-29T02:25:49.800Z,102056.69
2022-07-29T02:28:18.602Z,102060.75
2022-07-29T02:30:46.621Z,102057.88
2022-07-29T02:33:15.288Z,102060.34
2022-07-29T02:35:42.626Z,102061.09
2022-07-29T02:38:30.989Z,102061.81
2022-07-29T02:40:58.473Z,102060.75
2022-07-29T02:43:27.389Z,102066.06
2022-07-29T02:45:56.135Z,102065.94
2022-07-29T02:48:28.632Z,102067.88
2022-07-29T02:50:59.427Z,102072.50
2022-07-29T02:53:26.452Z,102064.84
2022-07-29T02:55:57.454Z,102076.00
2022-07-29T02:58:32.184Z,102074.78
2022-07-29T03:01:02.326Z,102078.28
2022-07-29T03:03:31.200Z,102074.69
2022-07-29T03:05:59.104Z,102071.28
2022-07-29T03:08:25.972Z,102080.13
2022-07-29T03:10:53.280Z,102072.00
2022-07-29T03:13:20.752Z,102071.31
2022-07-29T03:15:48.315Z,102080.81
2022-07-29T03:18:15.833Z,102084.25
2022-07-29T03:20:43.145Z,102089.00
2022-07-29T03:23:10.039Z,102090.06
2022-07-29T03:25:37.786Z,102092.41
2022-07-29T03:28:05.657Z,102091.38
2022-07-29T03:30:32.379Z,102098.34
2022-07-29T03:32:59.156Z,102102.53
2022-07-29T03:35:25.891Z,102093.94
2022-07-29T03:37:52.611Z,102097.47
2022-07-29T03:40:22.603Z,102100.00
2022-07-29T03:42:50.968Z,102098.34
2022-07-29T03:45:19.843Z,102108.75
2022-07-29T03:47:50.595Z,102107.69
2022-07-29T03:50:20.570Z,102103.00
2022-07-29T03:52:47.781Z,102106.50
2022-07-29T03:55:15.162Z,102105.50
2022-07-29T03:57:42.702Z,102107.56
2022-07-29T04:00:09.989Z,102105.88
2022-07-29T04:02:37.077Z,102101.59
2022-07-29T04:05:03.943Z,102100.00
2022-07-29T04:07:30.845Z,102109.47
2022-07-29T04:09:57.889Z,102105.09
2022-07-29T04:12:24.695Z,102104.41
2022-07-29T04:14:51.446Z,102105.00
2022-07-29T04:17:18.126Z,102109.09
2022-07-29T04:19:44.798Z,102105.84
2022-07-29T04:22:11.660Z,102102.28
2022-07-29T04:24:42.844Z,102109.38
2022-07-29T04:27:13.886Z,102110.19
2022-07-29T04:29:57.068Z,102109.31
2022-07-29T04:32:25.181Z,102116.44
2022-07-29T04:34:51.865Z,102104.25
2022-07-29T04:37:18.651Z,102119.94
2022-07-29T04:39:45.427Z,102121.66
2022-07-29T04:42:12.405Z,102120.84
2022-07-29T04:44:39.947Z,102129.47
2022-07-29T04:47:10.245Z,102126.94
2022-07-29T04:49:39.485Z,102131.34
2022-07-29T04:52:06.641Z,102125.38
2022-07-29T04:54:33.414Z,102127.97
2022-07-29T04:57:02.704Z,102132.44
2022-07-29T04:59:29.632Z,102128.06
2022-07-29T05:01:56.465Z,102125.53
2022-07-29T05:04:24.082Z,102134.50
2022-07-29T05:06:50.749Z,102132.81
2022-07-29T05:09:17.468Z,102137.16
2022-07-29T05:11:44.394Z,102133.84
2022-07-29T05:14:11.085Z,102134.78
2022-07-29T05:16:37.844Z,102131.78
2022-07-29T05:19:04.593Z,102141.44
2022-07-29T05:21:31.446Z,102141.19
2022-07-29T05:23:58.023Z,102124.78
2022-07-29T05:26:24.711Z,102132.75
2022-07-29T05:28:51.673Z,102130.28
2022-07-29T05:31:18.662Z,102130.56
2022-07-29T05:33:45.420Z,102134.03
2022-07-29T05:36:12.726Z,102134.81
2022-07-29T05:38:39.416Z,102138.47
2022-07-29T05:41:06.719Z,102129.22
2022-07-29T05:43:33.388Z,102131.81
2022-07-29T05:46:01.414Z,102126.84
2022-07-29T05:48:28.150Z,102130.88
2022-07-29T05:50:55.751Z,102126.78
2022-07-29T05:53:23.154Z,102127.03
2022-07-29T05:55:50.387Z,102128.22
2022-07-29T05:58:17.170Z,102130.19
2022-07-29T06:00:45.096Z,102119.00
2022-07-29T06:03:12.002Z,102123.53
2022-07-29T06:05:38.739Z,102127.16
2022-07-29T06:08:08.631Z,102126.44
2022-07-29T06:10:36.261Z,102133.44
2022-07-29T06:13:03.095Z,102129.81
2022-07-29T06:15:29.785Z,102133.47
2022-07-29T06:17:58.964Z,102135.34
2022-07-29T06:20:31.452Z,102131.78
2022-07-29T06:22:58.559Z,102129.09
2022-07-29T06:25:25.167Z,102127.38
2022-07-29T06:27:51.905Z,102132.56
2022-07-29T06:30:18.601Z,102134.31
2022-07-29T06:32:45.386Z,102126.50
2022-07-29T06:35:39.116Z,102142.19
2022-07-29T06:37:59.721Z,102137.88
2022-07-29T06:40:45.442Z,102133.53
2022-07-29T06:43:12.486Z,102143.03
2022-07-29T06:45:42.469Z,102141.22
2022-07-29T06:48:09.859Z,102152.50
2022-07-29T06:50:37.446Z,102144.59
2022-07-29T06:53:04.914Z,102148.16
2022-07-29T06:55:32.360Z,102157.81
2022-07-29T06:58:00.681Z,102149.91
2022-07-29T07:00:28.159Z,102149.09
2022-07-29T07:02:55.480Z,102143.84
2022-07-29T07:05:22.863Z,102146.50
2022-07-29T07:07:49.671Z,102150.88
2022-07-29T07:10:16.385Z,102143.91
2022-07-29T07:12:43.069Z,102149.13
2022-07-29T07:15:10.283Z,102142.19
2022-07-29T07:17:38.681Z,102150.16
2022-07-29T07:20:06.445Z,102148.44
2022-07-29T07:22:38.430Z,102145.94
2022-07-29T07:25:06.001Z,102151.25
2022-07-29T07:27:32.595Z,102151.31
2022-07-29T07:30:02.228Z,102144.41
2022-07-29T07:32:29.171Z,102135.72
2022-07-29T07:34:59.908Z,102138.41
2022-07-29T07:37:28.300Z,102136.66
2022-07-29T07:39:55.058Z,102144.47
2022-07-29T07:42:22.352Z,102137.50
2022-07-29T07:45:12.110Z,102134.88
2022-07-29T07:47:38.009Z,102141.06
2022-07-29T07:50:09.225Z,102140.25
2022-07-29T07:52:46.526Z,102141.22
2022-07-29T07:55:14.993Z,102142.94
2022-07-29T07:57:41.631Z,102140.28
2022-07-29T08:00:09.929Z,102142.94
2022-07-29T08:02:40.075Z,102138.53
2022-07-29T08:05:08.435Z,102138.47
2022-07-29T08:07:39.833Z,102148.13
2022-07-29T08:10:06.733Z,102143.84
2022-07-29T08:12:33.848Z,102144.69
2022-07-29T08:15:00.877Z,102139.47
2022-07-29T08:17:28.291Z,102142.19
2022-07-29T08:19:55.497Z,102141.31
2022-07-29T08:22:22.634Z,102144.94
2022-07-29T08:24:56.786Z,102145.84
2022-07-29T08:30:12.613Z,102143.31
2022-07-29T08:32:55.650Z,102142.47
2022-07-29T08:35:23.768Z,102134.63
2022-07-29T08:37:51.434Z,102136.41
2022-07-29T08:40:18.534Z,102140.00
2022-07-29T08:42:45.215Z,102138.31
2022-07-29T08:45:13.729Z,102133.03
2022-07-29T08:47:44.074Z,102127.00
2022-07-29T08:50:11.717Z,102132.28
2022-07-29T08:52:39.915Z,102137.63
2022-07-29T08:55:07.556Z,102131.53
2022-07-29T08:57:35.393Z,102126.28
2022-07-29T09:00:11.452Z,102128.97
2022-07-29T09:02:44.179Z,102121.09
2022-07-29T09:05:13.773Z,102119.38
2022-07-29T09:07:40.870Z,102079.03
2022-07-29T09:10:08.132Z,102115.94
2022-07-29T09:12:38.060Z,102117.72
2022-07-29T09:15:05.341Z,102119.50
2022-07-29T09:17:45.914Z,102115.16
2022-07-29T09:20:14.376Z,102115.19
2022-07-29T09:22:42.184Z,102116.03
2022-07-29T09:25:09.631Z,102119.59
2022-07-29T09:27:36.826Z,102117.00
2022-07-29T09:30:08.504Z,102112.63
2022-07-29T09:32:54.702Z,102106.53
2022-07-29T09:35:22.993Z,102109.16
2022-07-29T09:37:50.240Z,102109.16
2022-07-29T09:40:18.308Z,102102.19
2022-07-29T09:42:48.380Z,102093.41
2022-07-29T09:45:27.922Z,102093.41
2022-07-29T09:47:58.449Z,102072.38
2022-07-29T09:50:36.115Z,102089.03
2022-07-29T09:53:04.537Z,102099.59
2022-07-29T09:55:31.142Z,102093.44
2022-07-29T09:58:28.971Z,102091.66
2022-07-29T10:00:56.602Z,102087.09
2022-07-29T10:03:24.007Z,102084.84
2022-07-29T10:06:07.411Z,102078.41
2022-07-29T10:08:35.213Z,102071.97
2022-07-29T10:11:11.005Z,102065.34
2022-07-29T10:13:38.447Z,102072.00
2022-07-29T10:16:05.531Z,102063.22
2022-07-29T10:18:33.203Z,102068.91
2022-07-29T10:21:02.179Z,102066.19
2022-07-29T10:23:46.292Z,102047.16
2022-07-29T10:26:14.047Z,102066.72
2022-07-29T10:28:40.928Z,102063.50
2022-07-29T10:31:13.801Z,102054.72
2022-07-29T10:33:56.042Z,102056.28
2022-07-29T10:36:34.075Z,102051.81
2022-07-29T10:39:13.074Z,102062.56
2022-07-29T10:41:59.152Z,102057.88
2022-07-29T10:44:28.772Z,102058.75
2022-07-29T10:46:55.728Z,102056.25
2022-07-29T10:49:27.929Z,102056.69
2022-07-29T10:52:02.211Z,102056.06
2022-07-29T10:54:36.423Z,102053.53
2022-07-29T10:57:25.602Z,102050.47
2022-07-29T11:00:16.986Z,102064.88
2022-07-29T11:02:45.284Z,102055.41
2022-07-29T11:05:20.406Z,102051.25
2022-07-29T11:08:06.280Z,102052.25
2022-07-29T11:10:33.427Z,102052.66
2022-07-29T11:13:00.088Z,102049.16
2022-07-29T11:18:17.456Z,102040.72
2022-07-29T11:20:50.078Z,102048.00
2022-07-29T11:23:22.776Z,102044.47
2022-07-29T11:26:08.985Z,102042.09
2022-07-29T11:28:37.067Z,102036.94
2022-07-29T11:31:05.951Z,102042.13
2022-07-29T11:39:36.900Z,102037.50
2022-07-29T11:42:32.260Z,102038.59
2022-07-29T11:45:42.025Z,102029.56
2022-07-29T11:47:55.563Z,102028.78
2022-07-29T11:50:31.543Z,102026.19
2022-07-29T11:53:02.904Z,102012.06
2022-07-29T11:55:38.780Z,102016.16
2022-07-29T11:58:27.311Z,102013.41
2022-07-29T12:00:55.622Z,102016.25
2022-07-29T12:03:35.119Z,102011.72
2022-07-29T12:06:23.865Z,102010.25
2022-07-29T12:07:01.472Z,102040.78
2022-07-29T12:08:50.672Z,102014.59
2022-07-29T12:11:22.693Z,102010.78
2022-07-29T12:13:51.285Z,102001.16
2022-07-29T12:16:25.584Z,102001.78
2022-07-29T12:18:59.880Z,102005.63
2022-07-29T12:21:28.755Z,102009.41
2022-07-29T12:23:57.071Z,102014.84
2022-07-29T12:26:29.189Z,101973.09
2022-07-29T12:28:55.931Z,102010.03
2022-07-29T12:31:43.406Z,102006.66
2022-07-29T12:34:13.457Z,101996.25
2022-07-29T12:36:40.363Z,102001.75
2022-07-29T12:39:08.010Z,102000.22
2022-07-29T12:41:35.383Z,102000.34
2022-07-29T12:44:02.643Z,102001.09
2022-07-29T12:46:29.946Z,102004.63
2022-07-29T12:48:57.906Z,101998.41
2022-07-29T12:51:35.071Z,101993.81
2022-07-29T12:54:06.788Z,101990.19
2022-07-29T12:56:42.774Z,101988.44
2022-07-29T12:59:18.067Z,101991.06
2022-07-29T13:01:45.510Z,101986.06
2022-07-29T13:04:13.518Z,101986.91
2022-07-29T13:06:42.383Z,101979.69
2022-07-29T13:09:15.095Z,101986.22
2022-07-29T13:11:48.777Z,101975.97
2022-07-29T13:14:33.254Z,101979.63
2022-07-29T13:17:07.041Z,101979.75
2022-07-29T13:19:44.786Z,101981.38
2022-07-29T13:22:12.536Z,101976.94
2022-07-29T13:24:51.739Z,101975.16
2022-07-29T13:27:21.381Z,101982.19
2022-07-29T13:29:48.514Z,101978.38
2022-07-29T13:32:15.733Z,101987.28
2022-07-29T13:34:42.563Z,101979.44
2022-07-29T13:37:09.480Z,101988.69
2022-07-29T13:39:38.275Z,101992.69
2022-07-29T13:42:10.532Z,101978.22
2022-07-29T13:44:37.799Z,101986.00
2022-07-29T13:47:04.743Z,101984.00
2022-07-29T13:49:32.661Z,101977.91
2022-07-29T13:51:59.717Z,101972.78
2022-07-29T13:54:27.720Z,101976.41
2022-07-29T13:56:54.609Z,101968.38
2022-07-29T13:59:21.511Z,101977.78
2022-07-29T14:01:49.020Z,101962.50
2022-07-29T14:04:16.539Z,101969.22
2022-07-29T14:06:43.330Z,101957.50
2022-07-29T14:09:10.268Z,101956.72
2022-07-29T14:11:39.410Z,101963.16
2022-07-29T14:14:07.561Z,101956.09
2022-07-29T14:16:38.036Z,101956.31
2022-07-29T14:19:07.315Z,101954.75
2022-07-29T14:21:34.148Z,101953.91
2022-07-29T14:24:02.605Z,101946.06
2022-07-29T14:26:40.950Z,101955.72
2022-07-29T14:29:13.225Z,101954.06
2022-07-29T14:31:40.125Z,101949.53
2022-07-29T14:34:06.888Z,101952.81
2022-07-29T14:36:33.650Z,101953.63
2022-07-29T14:39:01.358Z,101957.50
2022-07-29T14:41:29.268Z,101955.34
2022-07-29T14:43:56.233Z,101958.91
2022-07-29T14:46:23.596Z,101951.53
2022-07-29T14:48:50.597Z,101948.00
2022-07-29T14:51:17.268Z,101957.47
2022-07-29T14:53:44.295Z,101951.09
2022-07-29T14:56:35.423Z,101956.94
2022-07-29T14:58:58.680Z,101960.19
2022-07-29T15:01:25.738Z,101941.34
2022-07-29T15:03:57.982Z,101949.56
2022-07-29T15:06:27.153Z,101948.50
2022-07-29T15:08:54.977Z,101948.56
2022-07-29T15:11:21.855Z,101952.69
2022-07-29T15:13:49.211Z,101947.84
2022-07-29T15:16:15.985Z,101946.69
2022-07-29T15:18:43.211Z,101951.94
2022-07-29T15:21:10.906Z,101942.81
2022-07-29T15:23:37.604Z,101948.41
2022-07-29T15:26:04.734Z,101942.66
2022-07-29T15:28:32.620Z,101938.03
2022-07-29T15:30:59.414Z,101938.47
2022-07-29T15:33:27.476Z,101937.09
2022-07-29T15:35:55.429Z,101927.81
2022-07-29T15:38:28.993Z,101936.84
2022-07-29T15:40:55.942Z,101941.19
2022-07-29T15:43:22.972Z,101943.03
2022-07-29T15:46:22.866Z,101935.19
2022-07-29T15:48:51.857Z,101942.38
2022-07-29T15:51:18.744Z,101936.31
2022-07-29T15:53:53.466Z,101935.94
2022-07-29T15:56:21.178Z,101933.66
2022-07-29T15:58:49.155Z,101933.41
2022-07-29T16:01:17.079Z,101939.34
2022-07-29T16:03:46.236Z,101939.25
2022-07-29T16:06:13.732Z,101936.66
2022-07-29T16:08:40.377Z,101939.72
2022-07-29T16:11:07.329Z,101935.53
2022-07-29T16:13:34.022Z,101941.59
2022-07-29T16:16:02.511Z,101932.03
2022-07-29T16:18:30.573Z,101934.81
2022-07-29T16:20:58.084Z,101941.16
2022-07-29T16:23:24.889Z,101931.81
2022-07-29T16:26:00.857Z,101931.09
2022-07-29T16:28:30.842Z,101928.91
2022-07-29T16:30:57.606Z,101929.59
2022-07-29T16:33:24.625Z,101929.56
2022-07-29T16:35:51.854Z,101942.13
2022-07-29T16:38:19.143Z,101938.56
2022-07-29T16:40:47.274Z,101932.34
2022-07-29T16:43:14.137Z,101928.09
2022-07-29T16:45:46.084Z,101933.94
2022-07-29T16:48:18.130Z,101925.94
2022-07-29T16:50:45.926Z,101931.25
2022-07-29T16:53:13.077Z,101930.16
2022-07-29T16:55:42.421Z,101924.72
2022-07-29T16:58:09.592Z,101925.81
2022-07-29T17:00:36.512Z,101919.56
2022-07-29T17:03:03.516Z,101923.34
2022-07-29T17:05:52.751Z,101924.31
2022-07-29T17:08:20.300Z,101930.44
2022-07-29T17:10:47.657Z,101928.75
2022-07-29T17:13:14.626Z,101920.81
2022-07-29T17:15:43.131Z,101926.09
2022-07-29T17:18:12.445Z,101924.47
2022-07-29T17:20:41.339Z,101924.47
2022-07-29T17:23:08.049Z,101927.94
2022-07-29T17:25:36.882Z,101927.94
2022-07-29T17:28:03.580Z,101934.38
2022-07-29T17:30:30.316Z,101938.72
2022-07-29T17:32:58.980Z,101938.81
2022-07-29T17:35:44.542Z,101932.59
2022-07-29T17:38:11.648Z,101930.09
2022-07-29T17:40:38.339Z,101935.41
2022-07-29T17:43:05.124Z,101930.13
2022-07-29T17:45:50.287Z,101935.50
2022-07-29T17:48:18.031Z,101930.19
2022-07-29T17:50:44.788Z,101932.00
2022-07-29T17:53:15.978Z,101920.69
2022-07-29T17:55:48.616Z,101919.03
2022-07-29T17:58:15.976Z,101925.22
2022-07-29T18:00:43.310Z,101922.72
2022-07-29T18:03:10.719Z,101919.19
2022-07-29T18:05:38.053Z,101919.31
2022-07-29T18:08:05.868Z,101915.00
2022-07-29T18:10:32.714Z,101920.34
2022-07-29T18:12:59.710Z,101917.63
2022-07-29T18:15:26.387Z,101916.84
2022-07-29T18:17:57.684Z,101920.44
2022-07-29T18:20:25.929Z,101924.06
2022-07-29T18:22:52.738Z,101928.66
2022-07-29T18:25:19.724Z,101915.34
2022-07-29T18:27:46.659Z,101925.13
2022-07-29T18:30:18.123Z,101922.53
2022-07-29T18:33:04.942Z,101925.28
2022-07-29T18:35:32.858Z,101935.97
2022-07-29T18:38:02.310Z,101931.59
2022-07-29T18:40:29.978Z,101936.03
2022-07-29T18:42:56.658Z,101936.03
2022-07-29T18:45:28.631Z,101934.38
2022-07-29T18:47:56.457Z,101931.75
2022-07-29T18:50:29.234Z,101933.47
2022-07-29T18:52:58.784Z,101933.56
2022-07-29T18:55:26.450Z,101931.00
2022-07-29T18:57:55.735Z,101924.88
2022-07-29T19:00:24.236Z,101922.28
2022-07-29T19:02:51.147Z,101929.31
2022-07-29T19:05:20.851Z,101921.44
2022-07-29T19:07:47.571Z,101920.69
2022-07-29T19:10:15.826Z,101930.47
2022-07-29T19:12:42.710Z,101938.41
2022-07-29T19:15:10.716Z,101936.72
2022-07-29T19:17:38.756Z,101937.66
2022-07-29T19:20:07.262Z,101936.75
2022-07-29T19:22:34.257Z,101938.59
2022-07-29T19:25:01.053Z,101940.38
2022-07-29T19:27:27.889Z,101938.66
2022-07-29T19:29:58.975Z,101940.44
2022-07-29T19:32:26.366Z,101946.66
2022-07-29T19:35:11.759Z,101940.53
2022-07-29T19:37:38.739Z,101938.81
2022-07-29T19:40:07.251Z,101907.41
2022-07-29T19:42:34.395Z,101939.81
2022-07-29T19:45:01.063Z,101943.34
2022-07-29T19:47:28.062Z,101936.34
2022-07-29T19:49:54.717Z,101944.28
2022-07-29T19:52:21.616Z,101949.53
2022-07-29T19:54:48.367Z,101946.91
2022-07-29T19:57:15.384Z,101947.78
2022-07-29T19:59:42.161Z,101950.44
2022-07-29T20:02:12.417Z,101953.09
2022-07-29T20:04:39.355Z,101954.84
2022-07-29T20:07:06.917Z,101955.72
2022-07-29T20:09:33.654Z,101950.47
2022-07-29T20:12:00.430Z,101952.22
2022-07-29T20:14:27.163Z,101948.72
2022-07-29T20:16:54.539Z,101947.84
2022-07-29T20:19:21.399Z,101946.13
2022-07-29T20:21:48.283Z,101953.13
2022-07-29T20:24:15.061Z,101958.41
2022-07-29T20:26:42.614Z,101957.53
2022-07-29T20:29:09.275Z,101957.53
2022-07-29T20:31:36.684Z,101961.91
2022-07-29T20:34:04.621Z,101962.81
2022-07-29T20:36:31.598Z,101961.03
2022-07-29T20:39:00.153Z,101957.53
2022-07-29T20:41:27.077Z,101957.53
2022-07-29T20:43:53.892Z,101967.19
2022-07-29T20:46:21.378Z,101968.91
2022-07-29T20:48:48.812Z,101959.25
2022-07-29T20:51:15.707Z,101968.00
2022-07-29T20:53:42.309Z,101959.25
2022-07-29T20:56:09.105Z,101967.97
2022-07-29T20:58:37.043Z,101968.00
2022-07-29T21:01:05.401Z,101967.97
2022-07-29T21:03:32.673Z,101962.72
2022-07-29T21:06:00.301Z,101963.59
2022-07-29T21:08:26.941Z,101969.72
2022-07-29T21:10:54.089Z,101974.06
2022-07-29T21:13:20.943Z,101970.56
2022-07-29T21:15:49.909Z,101971.41
2022-07-29T21:18:37.230Z,101967.03
2022-07-29T21:21:04.811Z,101972.28
2022-07-29T21:23:31.580Z,101966.13
2022-07-29T21:25:58.398Z,101964.38
2022-07-29T21:28:29.398Z,101966.13
2022-07-29T21:31:00.651Z,101963.47
2022-07-29T21:33:30.024Z,101959.94
2022-07-29T21:36:26.761Z,101963.41
2022-07-29T21:38:44.584Z,101964.25
2022-07-29T21:41:12.648Z,101972.06
2022-07-29T21:43:42.332Z,101963.31
2022-07-29T21:46:09.317Z,101967.69
2022-07-29T21:48:37.088Z,101966.78
2022-07-29T21:51:06.064Z,101967.66
2022-07-29T21:53:32.860Z,101965.88
2022-07-29T21:55:59.676Z,101968.47
2022-07-29T21:58:26.341Z,101968.47
2022-07-29T22:00:54.138Z,101967.59
2022-07-29T22:03:20.891Z,101966.75
2022-07-29T22:05:47.606Z,101961.47
2022-07-29T22:08:14.762Z,101966.66
2022-07-29T22:10:42.593Z,101964.91
2022-07-29T22:13:10.748Z,101967.50
2022-07-29T22:15:37.593Z,101971.84
2022-07-29T22:18:04.484Z,101967.47
2022-07-29T22:20:31.320Z,101967.47
2022-07-29T22:22:58.035Z,101964.88
2022-07-29T22:25:24.786Z,101973.59
2022-07-29T22:27:51.473Z,101969.16
2022-07-29T22:30:18.546Z,101960.44
2022-07-29T22:32:45.243Z,101964.78
2022-07-29T22:35:12.367Z,101924.44
2022-07-29T22:37:39.346Z,101961.25
2022-07-29T22:40:06.544Z,101963.84
2022-07-29T22:42:33.801Z,101966.41
2022-07-29T22:45:00.582Z,101959.34
2022-07-29T22:47:46.382Z,101969.78
2022-07-29T22:50:14.202Z,101967.16
2022-07-29T22:52:40.894Z,101964.50
2022-07-29T22:55:07.808Z,101970.59
2022-07-29T22:57:34.512Z,101963.53
2022-07-29T23:00:02.670Z,101964.41
2022-07-29T23:02:29.343Z,101922.25
2022-07-29T23:04:57.398Z,101953.03
2022-07-29T23:07:24.386Z,101958.28
2022-07-29T23:09:51.176Z,101958.25
2022-07-29T23:12:17.940Z,101960.84
2022-07-29T23:14:44.676Z,101960.84
2022-07-29T23:17:11.449Z,101959.03
2022-07-29T23:19:38.364Z,101959.84
2022-07-29T23:22:05.004Z,101967.72
2022-07-29T23:24:31.722Z,101956.31
2022-07-29T23:26:58.815Z,101959.78
2022-07-29T23:29:26.681Z,101958.03
2022-07-29T23:31:53.437Z,101953.66
2022-07-29T23:34:20.220Z,101951.88
2022-07-29T23:36:46.880Z,101957.09
2022-07-29T23:39:13.729Z,101954.47
2022-07-29T23:41:40.576Z,101955.41
2022-07-29T23:44:07.352Z,101958.94
2022-07-29T23:46:34.123Z,101951.97
2022-07-29T23:49:01.002Z,101953.69
2022-07-29T23:51:29.256Z,101957.19
2022-07-29T23:53:56.259Z,101951.88
2022-07-29T23:56:23.214Z,101960.53
2022-07-29T23:58:51.288Z,101955.28
